createdAt,value
2023-01-25T00:00:09.227Z,28.95
2023-01-25T00:02:37.545Z,30.12
2023-01-25T00:05:06.170Z,30.52
2023-01-25T00:07:34.576Z,31.50
2023-01-25T00:10:02.793Z,31.42
2023-01-25T00:12:31.041Z,30.97
2023-01-25T00:14:59.270Z,33.55
2023-01-25T00:17:27.619Z,34.40
2023-01-25T00:19:55.834Z,33.70
2023-01-25T00:22:24.161Z,32.50
2023-01-25T00:24:52.407Z,33.00
2023-01-25T00:27:20.634Z,32.83
2023-01-25T00:29:49.183Z,28.02
2023-01-25T00:32:19.153Z,28.38
2023-01-25T00:34:51.551Z,28.23
2023-01-25T00:37:21.486Z,28.73
2023-01-25T00:39:49.720Z,27.25
2023-01-25T00:42:19.393Z,26.10
2023-01-25T00:44:48.153Z,27.98
2023-01-25T00:47:16.850Z,26.37
2023-01-25T00:49:45.485Z,28.15
2023-01-25T00:52:13.910Z,28.67
2023-01-25T00:54:42.148Z,28.83
2023-01-25T00:57:10.632Z,28.12
2023-01-25T00:59:38.924Z,31.57
2023-01-25T01:02:07.194Z,30.23
2023-01-25T01:04:35.455Z,32.70
2023-01-25T01:07:03.844Z,31.10
2023-01-25T01:09:32.944Z,32.42
2023-01-25T01:12:01.262Z,30.45
2023-01-25T01:14:29.553Z,28.98
2023-01-25T01:16:58.135Z,25.92
2023-01-25T01:19:26.486Z,26.50
2023-01-25T01:21:54.740Z,28.95
2023-01-25T01:24:22.996Z,30.15
2023-01-25T01:26:51.188Z,29.32
2023-01-25T01:29:19.474Z,32.73
2023-01-25T01:31:49.390Z,32.25
2023-01-25T01:34:17.676Z,35.98
2023-01-25T01:36:46.393Z,28.40
2023-01-25T01:39:14.939Z,30.20
2023-01-25T01:41:43.173Z,29.70
2023-01-25T01:44:22.547Z,32.85
2023-01-25T01:46:55.234Z,28.57
2023-01-25T01:49:25.053Z,28.92
2023-01-25T01:52:03.785Z,32.88
2023-01-25T01:54:36.490Z,29.60
2023-01-25T01:57:09.196Z,28.83
2023-01-25T01:59:39.033Z,30.95
2023-01-25T02:02:07.639Z,28.07
2023-01-25T02:04:36.491Z,35.20
2023-01-25T02:07:06.249Z,30.57
2023-01-25T02:09:35.129Z,29.25
2023-01-25T02:12:03.740Z,32.23
2023-01-25T02:14:32.043Z,29.72
2023-01-25T02:17:00.341Z,29.32
2023-01-25T02:19:30.073Z,35.55
2023-01-25T02:21:59.204Z,33.38
2023-01-25T02:24:31.724Z,33.25
2023-01-25T02:29:29.091Z,36.88
2023-01-25T02:32:01.834Z,34.55
2023-01-25T02:34:30.101Z,35.80
2023-01-25T02:36:58.587Z,31.68
2023-01-25T02:39:28.058Z,28.92
2023-01-25T02:41:56.300Z,34.00
2023-01-25T02:44:29.033Z,29.98
2023-01-25T02:46:57.355Z,32.28
2023-01-25T02:49:25.697Z,32.30
2023-01-25T02:51:57.592Z,32.33
2023-01-25T02:54:26.876Z,33.35
2023-01-25T02:56:55.148Z,34.23
2023-01-25T02:59:23.574Z,32.98
2023-01-25T03:01:51.836Z,29.90
2023-01-25T03:04:20.050Z,34.83
2023-01-25T03:06:48.388Z,32.48
2023-01-25T03:09:16.622Z,33.15
2023-01-25T03:11:44.922Z,33.35
2023-01-25T03:14:13.162Z,32.58
2023-01-25T03:16:41.432Z,33.58
2023-01-25T03:19:10.882Z,33.55
2023-01-25T03:21:40.873Z,35.17
2023-01-25T03:24:10.888Z,35.05
2023-01-25T03:26:40.749Z,36.08
2023-01-25T03:29:08.982Z,36.75
2023-01-25T03:31:37.316Z,35.55
2023-01-25T03:34:05.571Z,40.38
2023-01-25T03:36:33.785Z,36.10
2023-01-25T03:39:02.044Z,38.80
2023-01-25T03:41:30.238Z,40.95
2023-01-25T03:43:58.466Z,39.35
2023-01-25T03:46:26.708Z,41.18
2023-01-25T03:48:54.932Z,39.58
2023-01-25T03:51:23.159Z,32.83
2023-01-25T03:53:51.491Z,36.20
2023-01-25T03:56:20.319Z,33.35
2023-01-25T03:58:48.650Z,36.15
2023-01-25T04:01:17.054Z,33.73
2023-01-25T04:03:45.464Z,33.98
2023-01-25T04:06:13.683Z,32.28
2023-01-25T04:08:41.962Z,33.00
2023-01-25T04:11:10.949Z,36.50
2023-01-25T04:13:39.628Z,33.10
2023-01-25T04:16:09.040Z,31.87
2023-01-25T04:18:37.222Z,33.15
2023-01-25T04:21:05.529Z,33.53
2023-01-25T04:23:33.728Z,32.03
2023-01-25T04:26:05.084Z,30.55
2023-01-25T04:28:34.373Z,32.85
2023-01-25T04:31:03.470Z,31.17
2023-01-25T04:33:31.695Z,33.38
2023-01-25T04:36:00.019Z,36.00
2023-01-25T04:38:28.473Z,33.85
2023-01-25T04:40:56.743Z,35.35
2023-01-25T04:43:26.166Z,34.88
2023-01-25T04:45:54.491Z,36.00
2023-01-25T04:48:22.724Z,39.08
2023-01-25T04:50:50.947Z,36.90
2023-01-25T04:53:19.207Z,36.55
2023-01-25T04:55:47.756Z,34.20
2023-01-25T04:58:16.014Z,32.73
2023-01-25T05:00:44.280Z,40.73
2023-01-25T05:03:12.637Z,42.48
2023-01-25T05:05:42.665Z,36.55
2023-01-25T05:08:10.937Z,40.15
2023-01-25T05:10:39.151Z,34.65
2023-01-25T05:13:07.489Z,33.78
2023-01-25T05:15:35.706Z,36.25
2023-01-25T05:18:04.408Z,34.43
2023-01-25T05:20:32.652Z,33.20
2023-01-25T05:23:00.886Z,37.13
2023-01-25T05:25:46.849Z,35.00
2023-01-25T05:28:15.149Z,33.95
2023-01-25T05:30:43.388Z,37.83
2023-01-25T05:33:11.638Z,39.73
2023-01-25T05:35:39.940Z,38.88
2023-01-25T05:38:08.220Z,43.45
2023-01-25T05:40:36.444Z,46.08
2023-01-25T05:43:04.690Z,40.78
2023-01-25T05:45:32.952Z,46.40
2023-01-25T05:48:01.207Z,41.37
2023-01-25T05:50:29.436Z,43.15
2023-01-25T05:52:57.803Z,45.25
2023-01-25T05:55:26.022Z,46.15
2023-01-25T05:57:55.957Z,46.18
2023-01-25T06:00:24.137Z,45.20
2023-01-25T06:02:52.463Z,43.00
2023-01-25T06:05:24.836Z,44.08
2023-01-25T06:07:53.067Z,45.43
2023-01-25T06:10:21.326Z,46.08
2023-01-25T06:12:49.563Z,47.98
2023-01-25T06:15:17.857Z,48.38
2023-01-25T06:17:46.133Z,41.53
2023-01-25T06:20:14.423Z,37.63
2023-01-25T06:22:42.746Z,34.65
2023-01-25T06:25:11.346Z,42.70
2023-01-25T06:27:39.817Z,40.23
2023-01-25T06:30:08.456Z,42.78
2023-01-25T06:32:36.751Z,42.60
2023-01-25T06:35:05.733Z,40.10
2023-01-25T06:37:33.971Z,47.25
2023-01-25T06:40:02.214Z,45.65
2023-01-25T06:42:30.535Z,45.15
2023-01-25T06:44:58.786Z,40.38
2023-01-25T06:47:27.286Z,41.53
2023-01-25T06:49:55.550Z,41.40
2023-01-25T06:52:23.773Z,49.03
2023-01-25T06:54:51.986Z,44.73
2023-01-25T06:57:20.303Z,48.42
2023-01-25T06:59:48.508Z,40.43
2023-01-25T07:02:16.759Z,42.10
2023-01-25T07:04:44.952Z,41.65
2023-01-25T07:07:13.249Z,43.02
2023-01-25T07:09:41.576Z,38.53
2023-01-25T07:12:09.817Z,38.65
2023-01-25T07:14:38.024Z,41.13
2023-01-25T07:17:06.264Z,36.93
2023-01-25T07:19:34.507Z,37.33
2023-01-25T07:22:02.727Z,33.63
2023-01-25T07:24:31.061Z,32.45
2023-01-25T07:26:59.290Z,30.68
2023-01-25T07:29:28.264Z,34.33
2023-01-25T07:31:56.656Z,40.03
2023-01-25T07:34:24.979Z,37.48
2023-01-25T07:36:53.206Z,41.00
2023-01-25T07:39:21.474Z,46.63
2023-01-25T07:41:49.701Z,36.50
2023-01-25T07:44:17.908Z,41.48
2023-01-25T07:46:46.206Z,48.90
2023-01-25T07:49:14.432Z,44.50
2023-01-25T07:51:42.655Z,47.70
2023-01-25T07:54:12.278Z,41.42
2023-01-25T07:56:40.829Z,42.20
2023-01-25T07:59:10.845Z,50.63
2023-01-25T08:01:39.650Z,41.85
2023-01-25T08:04:07.937Z,40.08
2023-01-25T08:06:39.024Z,38.80
2023-01-25T08:09:15.192Z,37.15
2023-01-25T08:11:43.790Z,39.58
2023-01-25T08:14:12.410Z,41.68
2023-01-25T08:16:40.638Z,41.55
2023-01-25T08:19:10.888Z,40.98
2023-01-25T08:21:39.361Z,39.00
2023-01-25T08:24:09.222Z,43.92
2023-01-25T08:26:37.780Z,40.00
2023-01-25T08:29:06.528Z,40.73
2023-01-25T08:31:35.409Z,37.65
2023-01-25T08:34:03.819Z,41.35
2023-01-25T08:36:32.073Z,40.88
2023-01-25T08:39:01.490Z,39.85
2023-01-25T08:41:30.578Z,43.25
2023-01-25T08:43:58.899Z,42.80
2023-01-25T08:46:30.281Z,43.33
2023-01-25T08:48:58.332Z,36.88
2023-01-25T08:51:26.663Z,44.65
2023-01-25T08:53:54.948Z,39.18
2023-01-25T08:56:23.254Z,40.80
2023-01-25T08:58:51.818Z,44.42
2023-01-25T09:01:20.500Z,43.45
2023-01-25T09:03:49.769Z,40.20
2023-01-25T09:06:19.556Z,35.52
2023-01-25T09:08:48.250Z,42.80
2023-01-25T09:11:17.907Z,38.78
2023-01-25T09:13:46.135Z,45.88
2023-01-25T09:16:15.956Z,38.02
2023-01-25T09:18:45.029Z,39.23
2023-01-25T09:21:14.336Z,36.93
2023-01-25T09:23:51.084Z,33.30
2023-01-25T09:26:15.243Z,44.20
2023-01-25T09:28:44.980Z,41.58
2023-01-25T09:31:21.458Z,43.80
2023-01-25T09:33:43.257Z,40.83
2023-01-25T09:36:12.058Z,46.25
2023-01-25T09:38:40.361Z,42.83
2023-01-25T09:41:10.154Z,46.35
2023-01-25T09:43:56.875Z,44.88
2023-01-25T09:46:33.497Z,42.05
2023-01-25T09:49:07.693Z,41.20
2023-01-25T09:51:40.621Z,43.25
2023-01-25T09:54:10.400Z,39.30
2023-01-25T09:56:38.992Z,47.40
2023-01-25T09:59:09.404Z,40.95
2023-01-25T10:01:48.679Z,40.90
2023-01-25T10:04:27.367Z,35.28
2023-01-25T10:07:01.501Z,43.65
2023-01-25T10:09:36.309Z,42.00
2023-01-25T10:12:12.009Z,45.48
2023-01-25T10:14:40.277Z,42.13
2023-01-25T10:17:15.772Z,48.85
2023-01-25T10:20:02.051Z,46.83
2023-01-25T10:22:31.830Z,33.33
2023-01-25T10:25:13.923Z,43.23
2023-01-25T10:27:43.702Z,40.30
2023-01-25T10:30:16.498Z,41.25
2023-01-25T10:32:55.441Z,37.95
2023-01-25T10:35:33.314Z,41.05
2023-01-25T10:37:49.421Z,42.80
2023-01-25T10:40:21.807Z,42.67
2023-01-25T10:42:50.835Z,50.58
2023-01-25T10:45:20.491Z,44.42
2023-01-25T10:47:53.158Z,47.38
2023-01-25T10:50:47.019Z,50.12
2023-01-25T10:53:22.598Z,46.73
2023-01-25T10:55:55.000Z,44.83
2023-01-25T10:58:36.729Z,46.33
2023-01-25T11:01:07.254Z,48.07
2023-01-25T11:03:37.206Z,50.00
2023-01-25T11:06:05.866Z,51.95
2023-01-25T11:08:35.648Z,49.15
2023-01-25T11:11:14.555Z,54.53
2023-01-25T11:13:43.065Z,46.10
2023-01-25T11:16:18.900Z,51.63
2023-01-25T11:18:51.340Z,49.27
2023-01-25T11:23:59.395Z,48.48
2023-01-25T11:26:23.886Z,44.50
2023-01-25T11:28:54.013Z,44.88
2023-01-25T11:31:24.288Z,44.15
2023-01-25T11:33:53.106Z,50.67
2023-01-25T11:36:26.226Z,46.40
2023-01-25T11:38:59.488Z,45.58
2023-01-25T11:41:41.824Z,51.28
2023-01-25T11:44:15.046Z,53.90
2023-01-25T11:46:48.001Z,50.65
2023-01-25T11:49:24.088Z,42.55
2023-01-25T11:52:10.936Z,50.67
2023-01-25T11:54:57.685Z,49.58
2023-01-25T11:57:45.120Z,50.58
2023-01-25T12:00:21.145Z,51.75
2023-01-25T12:02:58.996Z,47.23
2023-01-25T12:05:28.826Z,52.83
2023-01-25T12:07:58.715Z,49.35
2023-01-25T12:10:34.487Z,49.45
2023-01-25T12:13:06.868Z,51.83
2023-01-25T12:15:48.297Z,51.18
2023-01-25T12:18:18.080Z,48.98
2023-01-25T12:20:59.957Z,52.80
2023-01-25T12:23:42.018Z,54.90
2023-01-25T12:26:24.235Z,51.35
2023-01-25T12:28:54.084Z,50.43
2023-01-25T12:31:26.801Z,50.00
2023-01-25T12:33:57.649Z,59.27
2023-01-25T12:36:27.779Z,58.38
2023-01-25T12:38:57.775Z,55.92
2023-01-25T12:41:27.542Z,53.40
2023-01-25T12:43:57.446Z,54.40
2023-01-25T12:46:33.320Z,57.05
2023-01-25T12:49:03.230Z,49.65
2023-01-25T12:51:33.084Z,55.03
2023-01-25T12:54:02.720Z,52.20
2023-01-25T12:56:39.977Z,45.12
2023-01-25T12:59:09.916Z,50.85
2023-01-25T13:01:51.854Z,52.43
2023-01-25T13:04:39.511Z,57.93
2023-01-25T13:07:09.348Z,62.93
2023-01-25T13:09:42.158Z,55.70
2023-01-25T13:12:12.017Z,48.78
2023-01-25T13:14:41.088Z,54.93
2023-01-25T13:17:32.568Z,57.50
2023-01-25T13:20:01.671Z,53.15
2023-01-25T13:22:46.710Z,48.50
2023-01-25T13:25:16.588Z,56.08
2023-01-25T13:27:44.899Z,52.38
2023-01-25T13:30:17.479Z,54.83
2023-01-25T13:32:47.541Z,51.95
2023-01-25T13:35:29.848Z,58.70
2023-01-25T13:38:06.076Z,59.30
2023-01-25T13:40:39.065Z,52.58
2023-01-25T13:43:14.973Z,59.23
2023-01-25T13:45:43.715Z,61.28
2023-01-25T13:48:13.555Z,63.68
2023-01-25T13:50:46.024Z,61.70
2023-01-25T13:53:18.805Z,58.13
2023-01-25T13:55:48.861Z,56.75
2023-01-25T13:58:18.546Z,59.80
2023-01-25T14:00:57.726Z,60.80
2023-01-25T14:03:28.079Z,64.42
2023-01-25T14:05:57.513Z,62.08
2023-01-25T14:08:27.830Z,66.82
2023-01-25T14:10:57.439Z,62.73
2023-01-25T14:13:25.784Z,69.05
2023-01-25T14:15:55.492Z,65.97
2023-01-25T14:18:25.267Z,60.92
2023-01-25T14:20:55.045Z,57.45
2023-01-25T14:23:24.793Z,63.85
2023-01-25T14:25:53.969Z,58.80
2023-01-25T14:28:22.710Z,62.50
2023-01-25T14:30:52.816Z,57.23
2023-01-25T14:33:26.743Z,62.65
2023-01-25T14:36:01.670Z,69.27
2023-01-25T14:38:33.968Z,61.28
2023-01-25T14:41:04.059Z,64.12
2023-01-25T14:43:32.869Z,64.65
2023-01-25T14:46:01.142Z,61.53
2023-01-25T14:48:37.219Z,57.73
2023-01-25T14:51:08.323Z,57.50
2023-01-25T14:53:38.356Z,67.27
2023-01-25T14:56:08.067Z,69.37
2023-01-25T14:58:36.328Z,64.45
2023-01-25T15:01:05.085Z,64.95
2023-01-25T15:03:33.244Z,58.00
2023-01-25T15:06:03.332Z,59.45
2023-01-25T15:08:33.083Z,64.40
2023-01-25T15:11:02.965Z,67.08
2023-01-25T15:13:31.192Z,63.65
2023-01-25T15:16:03.537Z,55.65
2023-01-25T15:18:53.457Z,54.95
2023-01-25T15:21:26.348Z,55.95
2023-01-25T15:23:55.744Z,59.13
2023-01-25T15:26:25.247Z,54.05
2023-01-25T15:28:54.975Z,56.28
2023-01-25T15:31:24.926Z,52.98
2023-01-25T15:33:53.316Z,58.83
2023-01-25T15:36:21.673Z,64.60
2023-01-25T15:38:51.446Z,57.67
2023-01-25T15:41:19.815Z,56.77
2023-01-25T15:43:48.464Z,59.55
2023-01-25T15:46:24.195Z,59.23
2023-01-25T15:48:52.688Z,63.48
2023-01-25T15:51:21.238Z,58.17
2023-01-25T15:53:49.636Z,61.13
2023-01-25T15:56:20.253Z,64.45
2023-01-25T15:58:51.564Z,60.73
2023-01-25T16:01:22.377Z,61.90
2023-01-25T16:03:51.154Z,64.60
2023-01-25T16:06:24.157Z,67.60
2023-01-25T16:08:52.868Z,60.85
2023-01-25T16:11:21.741Z,70.52
2023-01-25T16:13:50.468Z,61.28
2023-01-25T16:16:22.130Z,66.12
2023-01-25T16:18:50.419Z,68.67
2023-01-25T16:21:18.732Z,65.83
2023-01-25T16:23:46.949Z,66.87
2023-01-25T16:26:19.275Z,70.03
2023-01-25T16:28:47.550Z,64.60
2023-01-25T16:31:30.224Z,78.20
2023-01-25T16:33:46.592Z,68.12
2023-01-25T16:36:16.107Z,68.80
2023-01-25T16:38:44.646Z,71.95
2023-01-25T16:41:13.316Z,69.92
2023-01-25T16:43:44.939Z,71.12
2023-01-25T16:46:17.437Z,72.03
2023-01-25T16:48:46.417Z,66.33
2023-01-25T16:51:18.928Z,68.95
2023-01-25T16:53:47.608Z,73.95
2023-01-25T16:56:23.240Z,58.92
2023-01-25T16:58:51.934Z,68.97
2023-01-25T17:01:21.516Z,66.35
2023-01-25T17:03:49.947Z,60.23
2023-01-25T17:06:19.584Z,58.17
2023-01-25T17:08:48.282Z,51.28
2023-01-25T17:11:18.742Z,49.00
2023-01-25T17:13:54.100Z,55.65
2023-01-25T17:16:22.984Z,53.20
2023-01-25T17:18:55.001Z,53.17
2023-01-25T17:21:23.881Z,48.95
2023-01-25T17:23:52.523Z,55.33
2023-01-25T17:26:21.571Z,46.88
2023-01-25T17:28:49.841Z,50.05
2023-01-25T17:31:19.437Z,50.15
2023-01-25T17:33:47.648Z,47.35
2023-01-25T17:36:16.046Z,43.83
2023-01-25T17:38:44.280Z,45.40
2023-01-25T17:41:13.751Z,47.40
2023-01-25T17:43:42.278Z,44.50
2023-01-25T17:46:18.049Z,40.43
2023-01-25T17:48:48.017Z,37.53
2023-01-25T17:51:16.426Z,41.45
2023-01-25T17:53:44.622Z,43.05
2023-01-25T17:56:13.446Z,36.83
2023-01-25T17:58:42.340Z,34.23
2023-01-25T18:01:15.030Z,37.50
2023-01-25T18:03:45.089Z,35.05
2023-01-25T18:06:16.564Z,33.08
2023-01-25T18:08:48.845Z,42.43
2023-01-25T18:11:18.447Z,30.15
2023-01-25T18:13:48.336Z,32.73
2023-01-25T18:16:17.340Z,31.20
2023-01-25T18:18:46.016Z,35.23
2023-01-25T18:21:15.300Z,36.90
2023-01-25T18:23:45.096Z,32.88
2023-01-25T18:26:20.510Z,41.95
2023-01-25T18:28:50.670Z,37.75
2023-01-25T18:31:18.968Z,38.53
2023-01-25T18:33:47.211Z,47.33
2023-01-25T18:36:16.344Z,42.45
2023-01-25T18:38:45.215Z,45.20
2023-01-25T18:41:13.715Z,47.93
2023-01-25T18:43:41.924Z,48.90
2023-01-25T18:46:11.495Z,52.78
2023-01-25T18:48:39.881Z,43.23
2023-01-25T18:51:09.827Z,48.13
2023-01-25T18:53:38.717Z,49.23
2023-01-25T18:56:07.989Z,51.88
2023-01-25T18:58:36.996Z,53.87
2023-01-25T19:01:06.469Z,53.00
2023-01-25T19:03:34.885Z,52.30
2023-01-25T19:06:03.976Z,48.08
2023-01-25T19:08:33.399Z,41.92
2023-01-25T19:11:06.142Z,53.87
2023-01-25T19:13:35.196Z,48.87
2023-01-25T19:16:03.953Z,53.08
2023-01-25T19:18:33.715Z,54.60
2023-01-25T19:21:02.215Z,42.03
2023-01-25T19:23:34.745Z,49.90
2023-01-25T19:26:03.394Z,52.25
2023-01-25T19:28:32.404Z,50.78
2023-01-25T19:31:02.399Z,54.58
2023-01-25T19:33:30.688Z,58.48
2023-01-25T19:36:00.077Z,53.92
2023-01-25T19:38:28.298Z,59.83
2023-01-25T19:40:56.525Z,58.55
2023-01-25T19:43:24.737Z,58.52
2023-01-25T19:45:53.019Z,57.83
2023-01-25T19:48:21.262Z,60.83
2023-01-25T19:50:49.585Z,59.27
2023-01-25T19:53:17.805Z,64.92
2023-01-25T19:55:46.028Z,60.43
2023-01-25T19:58:14.428Z,57.60
2023-01-25T20:00:42.659Z,62.53
2023-01-25T20:03:16.677Z,61.58
2023-01-25T20:05:41.819Z,61.88
2023-01-25T20:08:10.035Z,55.15
2023-01-25T20:10:38.277Z,60.92
2023-01-25T20:13:06.517Z,61.40
2023-01-25T20:15:34.748Z,51.92
2023-01-25T20:18:03.010Z,55.55
2023-01-25T20:20:31.233Z,51.92
2023-01-25T20:22:59.441Z,52.90
2023-01-25T20:25:27.698Z,52.30
2023-01-25T20:27:55.946Z,55.65
2023-01-25T20:30:24.172Z,53.68
2023-01-25T20:32:52.423Z,61.40
2023-01-25T20:35:20.734Z,59.53
2023-01-25T20:37:49.440Z,53.55
2023-01-25T20:40:17.898Z,54.80
2023-01-25T20:42:46.117Z,58.65
2023-01-25T20:45:15.981Z,65.60
2023-01-25T20:47:44.190Z,64.97
2023-01-25T20:50:12.446Z,59.95
2023-01-25T20:52:40.656Z,58.40
2023-01-25T20:55:09.673Z,61.02
2023-01-25T20:57:38.288Z,59.30
2023-01-25T21:00:06.821Z,73.80
2023-01-25T21:02:35.049Z,61.25
2023-01-25T21:05:03.204Z,70.05
2023-01-25T21:07:31.435Z,61.33
2023-01-25T21:09:59.668Z,69.15
2023-01-25T21:12:27.886Z,72.27
2023-01-25T21:14:56.397Z,75.03
2023-01-25T21:17:24.792Z,73.50
2023-01-25T21:19:53.031Z,77.27
2023-01-25T21:22:21.280Z,82.00
2023-01-25T21:24:49.551Z,80.42
2023-01-25T21:27:17.750Z,78.12
2023-01-25T21:29:45.965Z,77.55
2023-01-25T21:32:14.153Z,67.55
2023-01-25T21:34:42.573Z,72.20
2023-01-25T21:37:10.760Z,79.15
2023-01-25T21:39:39.828Z,74.60
2023-01-25T21:42:08.141Z,71.57
2023-01-25T21:44:54.204Z,82.88
2023-01-25T21:47:31.144Z,74.82
2023-01-25T21:50:10.796Z,82.10
2023-01-25T21:52:39.156Z,76.40
2023-01-25T21:55:07.812Z,78.65
2023-01-25T21:57:36.016Z,82.30
2023-01-25T22:00:05.374Z,83.27
2023-01-25T22:02:33.641Z,81.22
2023-01-25T22:05:01.938Z,73.05
2023-01-25T22:07:32.192Z,86.15
2023-01-25T22:10:00.754Z,82.60
2023-01-25T22:12:28.967Z,78.00
2023-01-25T22:14:57.203Z,81.75
2023-01-25T22:17:25.582Z,87.75
2023-01-25T22:19:53.807Z,90.05
2023-01-25T22:22:22.022Z,84.97
2023-01-25T22:24:50.283Z,76.87
2023-01-25T22:27:20.403Z,81.22
2023-01-25T22:29:48.756Z,85.53
2023-01-25T22:32:17.555Z,80.15
2023-01-25T22:34:45.805Z,86.08
2023-01-25T22:37:14.047Z,88.17
2023-01-25T22:39:42.273Z,88.33
2023-01-25T22:42:10.492Z,85.55
2023-01-25T22:44:38.688Z,81.50
2023-01-25T22:47:06.919Z,88.35
2023-01-25T22:49:35.155Z,87.12
2023-01-25T22:52:03.358Z,77.67
2023-01-25T22:54:31.585Z,84.25
2023-01-25T22:57:00.392Z,83.03
2023-01-25T22:59:28.686Z,81.15
2023-01-25T23:01:56.898Z,82.27
2023-01-25T23:04:25.236Z,78.15
2023-01-25T23:06:55.063Z,85.03
2023-01-25T23:09:23.286Z,79.72
2023-01-25T23:11:51.496Z,76.07
2023-01-25T23:14:37.427Z,73.20
2023-01-25T23:17:23.558Z,73.10
2023-01-25T23:19:51.812Z,81.50
2023-01-25T23:22:20.047Z,70.90
2023-01-25T23:24:48.291Z,73.47
2023-01-25T23:27:16.503Z,71.45
2023-01-25T23:29:44.739Z,76.35
2023-01-25T23:32:13.061Z,79.35
2023-01-25T23:34:41.431Z,73.72
2023-01-25T23:37:09.645Z,70.92
2023-01-25T23:39:37.934Z,70.52
2023-01-25T23:42:06.175Z,75.10
2023-01-25T23:44:34.404Z,86.15
2023-01-25T23:47:02.622Z,80.53
2023-01-25T23:49:30.840Z,82.55
2023-01-25T23:51:59.038Z,87.50
2023-01-25T23:54:27.340Z,71.30
2023-01-25T23:56:55.633Z,79.37
2023-01-25T23:59:23.842Z,79.37
